sensor_id;sensor_type;location;lat;lon;timestamp;pressure;altitude;pressure_sealevel;temperature;humidity
79118;BME280;68523;51.336;-0.846;2023-06-04T00:00:00;101280.0;;;12.51;64.24
79118;BME280;68523;51.336;-0.846;2023-06-04T00:03:00;101280.0;;;12.55;63.91
79118;BME280;68523;51.336;-0.846;2023-06-04T00:06:00;101290.0;;;12.43;64.55
79118;BME280;68523;51.336;-0.846;2023-06-04T00:09:00;101280.0;;;12.37;64.77
79118;BME280;68523;51.336;-0.846;2023-06-04T00:12:02;101290.0;;;12.39;64.70
79118;BME280;68523;51.336;-0.846;2023-06-04T00:15:00;101280.0;;;12.29;64.89
79118;BME280;68523;51.336;-0.846;2023-06-04T00:18:00;101280.0;;;12.31;64.62
79118;BME280;68523;51.336;-0.846;2023-06-04T00:21:00;101280.0;;;12.16;65.40
79118;BME280;68523;51.336;-0.846;2023-06-04T00:24:01;101280.0;;;12.13;65.40
79118;BME280;68523;51.336;-0.846;2023-06-04T00:27:00;101280.0;;;12.13;65.22
79118;BME280;68523;51.336;-0.846;2023-06-04T00:30:00;101280.0;;;12.13;65.10
79118;BME280;68523;51.336;-0.846;2023-06-04T00:33:00;101280.0;;;12.01;65.84
79118;BME280;68523;51.336;-0.846;2023-06-04T00:36:00;101280.0;;;11.83;66.58
79118;BME280;68523;51.336;-0.846;2023-06-04T00:39:00;101270.0;;;11.70;67.20
79118;BME280;68523;51.336;-0.846;2023-06-04T00:42:00;101280.0;;;11.55;68.20
79118;BME280;68523;51.336;-0.846;2023-06-04T00:45:00;101280.0;;;11.61;67.91
79118;BME280;68523;51.336;-0.846;2023-06-04T00:48:00;101280.0;;;11.51;68.27
79118;BME280;68523;51.336;-0.846;2023-06-04T00:51:00;101280.0;;;11.53;67.92
79118;BME280;68523;51.336;-0.846;2023-06-04T00:54:03;101280.0;;;11.46;68.27
79118;BME280;68523;51.336;-0.846;2023-06-04T00:57:00;101280.0;;;11.40;68.65
79118;BME280;68523;51.336;-0.846;2023-06-04T01:00:00;101290.0;;;11.35;68.58
79118;BME280;68523;51.336;-0.846;2023-06-04T01:03:03;101290.0;;;11.33;68.64
79118;BME280;68523;51.336;-0.846;2023-06-04T01:06:06;101290.0;;;11.22;69.31
79118;BME280;68523;51.336;-0.846;2023-06-04T01:09:00;101290.0;;;11.22;69.25
79118;BME280;68523;51.336;-0.846;2023-06-04T01:12:03;101290.0;;;11.02;70.45
79118;BME280;68523;51.336;-0.846;2023-06-04T01:15:00;101290.0;;;10.83;71.11
79118;BME280;68523;51.336;-0.846;2023-06-04T01:18:01;101280.0;;;10.86;71.33
79118;BME280;68523;51.336;-0.846;2023-06-04T01:21:02;101280.0;;;10.80;71.97
79118;BME280;68523;51.336;-0.846;2023-06-04T01:24:01;101280.0;;;10.73;72.38
79118;BME280;68523;51.336;-0.846;2023-06-04T01:27:00;101280.0;;;10.66;72.87
79118;BME280;68523;51.336;-0.846;2023-06-04T01:30:00;101270.0;;;10.57;73.52
79118;BME280;68523;51.336;-0.846;2023-06-04T01:33:02;101270.0;;;10.51;74.37
79118;BME280;68523;51.336;-0.846;2023-06-04T01:36:00;101270.0;;;10.52;74.53
79118;BME280;68523;51.336;-0.846;2023-06-04T01:39:00;101270.0;;;10.48;74.78
79118;BME280;68523;51.336;-0.846;2023-06-04T01:42:00;101270.0;;;10.48;75.23
79118;BME280;68523;51.336;-0.846;2023-06-04T01:45:00;101270.0;;;10.41;75.51
79118;BME280;68523;51.336;-0.846;2023-06-04T01:48:01;101270.0;;;10.42;75.57
79118;BME280;68523;51.336;-0.846;2023-06-04T01:51:00;101270.0;;;10.36;76.00
79118;BME280;68523;51.336;-0.846;2023-06-04T01:54:00;101270.0;;;10.30;76.31
79118;BME280;68523;51.336;-0.846;2023-06-04T01:57:00;101270.0;;;10.25;76.76
79118;BME280;68523;51.336;-0.846;2023-06-04T02:00:00;101260.0;;;10.15;77.29
79118;BME280;68523;51.336;-0.846;2023-06-04T02:03:00;101260.0;;;10.16;77.46
79118;BME280;68523;51.336;-0.846;2023-06-04T02:06:00;101260.0;;;10.08;77.87
79118;BME280;68523;51.336;-0.846;2023-06-04T02:09:00;101260.0;;;10.12;77.86
79118;BME280;68523;51.336;-0.846;2023-06-04T02:12:00;101260.0;;;10.05;78.21
79118;BME280;68523;51.336;-0.846;2023-06-04T02:15:00;101260.0;;;10.07;78.18
79118;BME280;68523;51.336;-0.846;2023-06-04T02:18:12;101260.0;;;9.99;78.52
79118;BME280;68523;51.336;-0.846;2023-06-04T02:21:00;101260.0;;;9.85;79.39
79118;BME280;68523;51.336;-0.846;2023-06-04T02:24:00;101270.0;;;9.82;79.75
79118;BME280;68523;51.336;-0.846;2023-06-04T02:27:00;101270.0;;;9.81;79.94
79118;BME280;68523;51.336;-0.846;2023-06-04T02:30:00;101270.0;;;9.76;80.26
79118;BME280;68523;51.336;-0.846;2023-06-04T02:33:00;101270.0;;;9.76;80.39
79118;BME280;68523;51.336;-0.846;2023-06-04T02:36:00;101260.0;;;9.75;80.39
79118;BME280;68523;51.336;-0.846;2023-06-04T02:39:00;101260.0;;;9.69;80.68
79118;BME280;68523;51.336;-0.846;2023-06-04T02:42:00;101260.0;;;9.66;81.01
79118;BME280;68523;51.336;-0.846;2023-06-04T02:45:00;101260.0;;;9.60;81.51
79118;BME280;68523;51.336;-0.846;2023-06-04T02:48:00;101260.0;;;9.57;81.67
79118;BME280;68523;51.336;-0.846;2023-06-04T02:51:00;101260.0;;;9.51;82.11
79118;BME280;68523;51.336;-0.846;2023-06-04T02:54:00;101260.0;;;9.53;82.24
79118;BME280;68523;51.336;-0.846;2023-06-04T02:57:00;101260.0;;;9.44;82.63
79118;BME280;68523;51.336;-0.846;2023-06-04T03:00:00;101260.0;;;9.44;82.77
79118;BME280;68523;51.336;-0.846;2023-06-04T03:03:00;101260.0;;;9.33;83.27
79118;BME280;68523;51.336;-0.846;2023-06-04T03:06:00;101260.0;;;9.23;83.68
79118;BME280;68523;51.336;-0.846;2023-06-04T03:09:00;101260.0;;;9.14;83.75
79118;BME280;68523;51.336;-0.846;2023-06-04T03:12:00;101260.0;;;9.01;84.88
79118;BME280;68523;51.336;-0.846;2023-06-04T03:15:00;101260.0;;;9.04;85.05
79118;BME280;68523;51.336;-0.846;2023-06-04T03:18:00;101260.0;;;8.94;85.38
79118;BME280;68523;51.336;-0.846;2023-06-04T03:21:00;101260.0;;;9.01;85.24
79118;BME280;68523;51.336;-0.846;2023-06-04T03:24:00;101270.0;;;8.91;85.76
79118;BME280;68523;51.336;-0.846;2023-06-04T03:27:01;101270.0;;;8.84;86.04
79118;BME280;68523;51.336;-0.846;2023-06-04T03:30:00;101270.0;;;8.85;86.22
79118;BME280;68523;51.336;-0.846;2023-06-04T03:33:00;101270.0;;;8.82;86.64
79118;BME280;68523;51.336;-0.846;2023-06-04T03:36:00;101270.0;;;8.75;86.90
79118;BME280;68523;51.336;-0.846;2023-06-04T03:39:00;101270.0;;;8.84;86.67
79118;BME280;68523;51.336;-0.846;2023-06-04T03:42:00;101270.0;;;8.79;86.76
79118;BME280;68523;51.336;-0.846;2023-06-04T03:45:00;101270.0;;;8.83;87.03
79118;BME280;68523;51.336;-0.846;2023-06-04T03:48:00;101260.0;;;8.75;87.27
79118;BME280;68523;51.336;-0.846;2023-06-04T03:51:00;101260.0;;;8.82;87.50
79118;BME280;68523;51.336;-0.846;2023-06-04T03:54:00;101260.0;;;8.76;87.25
79118;BME280;68523;51.336;-0.846;2023-06-04T03:57:00;101260.0;;;8.75;87.49
79118;BME280;68523;51.336;-0.846;2023-06-04T04:00:00;101270.0;;;8.76;87.70
79118;BME280;68523;51.336;-0.846;2023-06-04T04:03:00;101270.0;;;8.72;87.81
79118;BME280;68523;51.336;-0.846;2023-06-04T04:06:00;101270.0;;;8.74;87.87
79118;BME280;68523;51.336;-0.846;2023-06-04T04:09:00;101270.0;;;8.75;88.09
79118;BME280;68523;51.336;-0.846;2023-06-04T04:12:00;101270.0;;;8.69;88.14
79118;BME280;68523;51.336;-0.846;2023-06-04T04:15:00;101270.0;;;8.80;88.16
79118;BME280;68523;51.336;-0.846;2023-06-04T04:18:00;101270.0;;;8.80;88.18
79118;BME280;68523;51.336;-0.846;2023-06-04T04:21:09;101270.0;;;8.79;88.13
79118;BME280;68523;51.336;-0.846;2023-06-04T04:24:00;101270.0;;;8.78;88.29
79118;BME280;68523;51.336;-0.846;2023-06-04T04:27:00;101270.0;;;8.74;88.56
79118;BME280;68523;51.336;-0.846;2023-06-04T04:30:00;101270.0;;;8.80;88.36
79118;BME280;68523;51.336;-0.846;2023-06-04T04:33:00;101270.0;;;8.83;88.40
79118;BME280;68523;51.336;-0.846;2023-06-04T04:36:00;101270.0;;;8.88;88.18
79118;BME280;68523;51.336;-0.846;2023-06-04T04:39:00;101270.0;;;8.86;88.24
79118;BME280;68523;51.336;-0.846;2023-06-04T04:42:00;101270.0;;;8.86;88.24
79118;BME280;68523;51.336;-0.846;2023-06-04T04:45:00;101270.0;;;8.93;88.00
79118;BME280;68523;51.336;-0.846;2023-06-04T04:48:00;101270.0;;;8.95;87.98
79118;BME280;68523;51.336;-0.846;2023-06-04T04:51:00;101260.0;;;9.03;87.65
79118;BME280;68523;51.336;-0.846;2023-06-04T04:54:01;101260.0;;;9.07;87.56
79118;BME280;68523;51.336;-0.846;2023-06-04T04:57:00;101260.0;;;9.12;87.24
79118;BME280;68523;51.336;-0.846;2023-06-04T05:00:00;101270.0;;;9.19;87.07
79118;BME280;68523;51.336;-0.846;2023-06-04T05:03:00;101270.0;;;9.42;86.33
79118;BME280;68523;51.336;-0.846;2023-06-04T05:06:00;101270.0;;;10.40;82.58
79118;BME280;68523;51.336;-0.846;2023-06-04T05:09:00;101270.0;;;10.76;80.79
79118;BME280;68523;51.336;-0.846;2023-06-04T05:12:00;101270.0;;;11.03;79.39
79118;BME280;68523;51.336;-0.846;2023-06-04T05:15:00;101270.0;;;11.17;78.86
79118;BME280;68523;51.336;-0.846;2023-06-04T05:18:00;101270.0;;;11.40;77.74
79118;BME280;68523;51.336;-0.846;2023-06-04T05:21:00;101270.0;;;11.35;77.47
79118;BME280;68523;51.336;-0.846;2023-06-04T05:24:00;101270.0;;;11.34;77.57
79118;BME280;68523;51.336;-0.846;2023-06-04T05:27:00;101270.0;;;11.55;76.77
79118;BME280;68523;51.336;-0.846;2023-06-04T05:30:00;101270.0;;;11.53;75.98
79118;BME280;68523;51.336;-0.846;2023-06-04T05:33:00;101270.0;;;11.55;75.83
79118;BME280;68523;51.336;-0.846;2023-06-04T05:36:00;101270.0;;;11.94;75.21
79118;BME280;68523;51.336;-0.846;2023-06-04T05:39:00;101270.0;;;12.36;73.22
79118;BME280;68523;51.336;-0.846;2023-06-04T05:42:00;101270.0;;;13.18;70.74
79118;BME280;68523;51.336;-0.846;2023-06-04T05:45:00;101270.0;;;12.69;71.70
79118;BME280;68523;51.336;-0.846;2023-06-04T05:48:00;101270.0;;;13.22;69.98
79118;BME280;68523;51.336;-0.846;2023-06-04T05:51:00;101270.0;;;12.86;70.65
79118;BME280;68523;51.336;-0.846;2023-06-04T05:54:00;101270.0;;;13.04;69.97
79118;BME280;68523;51.336;-0.846;2023-06-04T05:57:00;101270.0;;;12.78;71.00
79118;BME280;68523;51.336;-0.846;2023-06-04T06:00:00;101270.0;;;13.26;70.23
79118;BME280;68523;51.336;-0.846;2023-06-04T06:03:00;101270.0;;;13.13;68.28
79118;BME280;68523;51.336;-0.846;2023-06-04T06:06:00;101270.0;;;13.27;68.37
79118;BME280;68523;51.336;-0.846;2023-06-04T06:09:00;101270.0;;;13.04;68.60
79118;BME280;68523;51.336;-0.846;2023-06-04T06:12:00;101270.0;;;12.83;70.04
79118;BME280;68523;51.336;-0.846;2023-06-04T06:15:00;101270.0;;;13.60;68.09
79118;BME280;68523;51.336;-0.846;2023-06-04T06:18:00;101270.0;;;13.27;67.48
79118;BME280;68523;51.336;-0.846;2023-06-04T06:21:00;101280.0;;;13.74;66.45
79118;BME280;68523;51.336;-0.846;2023-06-04T06:24:00;101280.0;;;13.88;65.44
79118;BME280;68523;51.336;-0.846;2023-06-04T06:27:00;101280.0;;;14.23;64.08
79118;BME280;68523;51.336;-0.846;2023-06-04T06:30:00;101280.0;;;13.80;64.77
79118;BME280;68523;51.336;-0.846;2023-06-04T06:33:00;101280.0;;;13.51;65.36
79118;BME280;68523;51.336;-0.846;2023-06-04T06:36:00;101280.0;;;13.37;67.69
79118;BME280;68523;51.336;-0.846;2023-06-04T06:39:00;101280.0;;;13.05;68.30
79118;BME280;68523;51.336;-0.846;2023-06-04T06:42:00;101280.0;;;12.57;68.68
79118;BME280;68523;51.336;-0.846;2023-06-04T06:45:00;101280.0;;;13.04;67.21
79118;BME280;68523;51.336;-0.846;2023-06-04T06:48:00;101280.0;;;13.16;66.30
79118;BME280;68523;51.336;-0.846;2023-06-04T06:51:00;101280.0;;;12.94;66.73
79118;BME280;68523;51.336;-0.846;2023-06-04T06:54:00;101280.0;;;13.26;65.56
79118;BME280;68523;51.336;-0.846;2023-06-04T06:57:00;101270.0;;;13.46;65.42
79118;BME280;68523;51.336;-0.846;2023-06-04T07:00:00;101280.0;;;13.31;63.94
79118;BME280;68523;51.336;-0.846;2023-06-04T07:03:00;101280.0;;;13.91;63.50
79118;BME280;68523;51.336;-0.846;2023-06-04T07:06:00;101280.0;;;13.87;63.97
79118;BME280;68523;51.336;-0.846;2023-06-04T07:09:00;101280.0;;;14.64;60.61
79118;BME280;68523;51.336;-0.846;2023-06-04T07:12:00;101290.0;;;15.40;56.97
79118;BME280;68523;51.336;-0.846;2023-06-04T07:15:00;101290.0;;;16.26;54.66
79118;BME280;68523;51.336;-0.846;2023-06-04T07:18:00;101290.0;;;15.46;56.38
79118;BME280;68523;51.336;-0.846;2023-06-04T07:21:00;101290.0;;;15.97;53.80
79118;BME280;68523;51.336;-0.846;2023-06-04T07:24:00;101290.0;;;16.44;52.87
79118;BME280;68523;51.336;-0.846;2023-06-04T07:27:00;101290.0;;;16.76;52.48
79118;BME280;68523;51.336;-0.846;2023-06-04T07:30:00;101290.0;;;16.01;54.89
79118;BME280;68523;51.336;-0.846;2023-06-04T07:33:00;101290.0;;;16.64;53.09
79118;BME280;68523;51.336;-0.846;2023-06-04T07:36:00;101290.0;;;16.52;52.27
79118;BME280;68523;51.336;-0.846;2023-06-04T07:39:00;101290.0;;;16.20;53.73
79118;BME280;68523;51.336;-0.846;2023-06-04T07:42:00;101290.0;;;16.95;52.42
79118;BME280;68523;51.336;-0.846;2023-06-04T07:45:00;101300.0;;;16.38;53.39
79118;BME280;68523;51.336;-0.846;2023-06-04T07:48:00;101300.0;;;16.91;52.44
79118;BME280;68523;51.336;-0.846;2023-06-04T07:51:02;101290.0;;;17.30;51.72
79118;BME280;68523;51.336;-0.846;2023-06-04T07:54:00;101290.0;;;18.23;49.74
79118;BME280;68523;51.336;-0.846;2023-06-04T07:57:00;101290.0;;;18.17;49.59
79118;BME280;68523;51.336;-0.846;2023-06-04T08:00:00;101290.0;;;17.27;48.83
79118;BME280;68523;51.336;-0.846;2023-06-04T08:03:00;101290.0;;;16.66;50.09
79118;BME280;68523;51.336;-0.846;2023-06-04T08:06:00;101290.0;;;17.68;49.24
79118;BME280;68523;51.336;-0.846;2023-06-04T08:09:00;101280.0;;;17.86;49.17
79118;BME280;68523;51.336;-0.846;2023-06-04T08:12:00;101290.0;;;17.99;49.15
79118;BME280;68523;51.336;-0.846;2023-06-04T08:15:00;101290.0;;;17.32;48.53
79118;BME280;68523;51.336;-0.846;2023-06-04T08:18:00;101290.0;;;17.61;47.73
79118;BME280;68523;51.336;-0.846;2023-06-04T08:21:00;101290.0;;;16.78;49.98
79118;BME280;68523;51.336;-0.846;2023-06-04T08:24:00;101290.0;;;17.52;48.41
79118;BME280;68523;51.336;-0.846;2023-06-04T08:27:00;101290.0;;;18.06;47.97
79118;BME280;68523;51.336;-0.846;2023-06-04T08:30:00;101290.0;;;17.61;48.71
79118;BME280;68523;51.336;-0.846;2023-06-04T08:33:00;101290.0;;;17.81;48.76
79118;BME280;68523;51.336;-0.846;2023-06-04T08:36:00;101290.0;;;17.80;47.86
79118;BME280;68523;51.336;-0.846;2023-06-04T08:39:00;101290.0;;;17.91;47.94
79118;BME280;68523;51.336;-0.846;2023-06-04T08:42:04;101290.0;;;18.05;46.90
79118;BME280;68523;51.336;-0.846;2023-06-04T08:45:00;101290.0;;;18.38;47.89
79118;BME280;68523;51.336;-0.846;2023-06-04T08:48:01;101300.0;;;18.83;45.97
79118;BME280;68523;51.336;-0.846;2023-06-04T08:51:02;101290.0;;;19.20;45.62
79118;BME280;68523;51.336;-0.846;2023-06-04T08:54:00;101300.0;;;18.37;46.79
79118;BME280;68523;51.336;-0.846;2023-06-04T08:57:01;101300.0;;;19.27;45.97
79118;BME280;68523;51.336;-0.846;2023-06-04T09:00:01;101300.0;;;19.99;44.39
79118;BME280;68523;51.336;-0.846;2023-06-04T09:03:02;101310.0;;;19.13;44.26
79118;BME280;68523;51.336;-0.846;2023-06-04T09:06:01;101300.0;;;19.40;44.43
79118;BME280;68523;51.336;-0.846;2023-06-04T09:09:03;101300.0;;;20.20;44.60
79118;BME280;68523;51.336;-0.846;2023-06-04T09:12:01;101300.0;;;20.54;42.43
79118;BME280;68523;51.336;-0.846;2023-06-04T09:15:00;101300.0;;;20.19;41.73
79118;BME280;68523;51.336;-0.846;2023-06-04T09:18:00;101300.0;;;19.98;43.12
79118;BME280;68523;51.336;-0.846;2023-06-04T09:21:01;101300.0;;;19.29;43.40
79118;BME280;68523;51.336;-0.846;2023-06-04T09:24:00;101300.0;;;20.49;41.76
79118;BME280;68523;51.336;-0.846;2023-06-04T09:27:09;101300.0;;;19.69;43.66
79118;BME280;68523;51.336;-0.846;2023-06-04T09:30:00;101300.0;;;19.80;42.49
79118;BME280;68523;51.336;-0.846;2023-06-04T09:33:06;101300.0;;;19.53;42.70
79118;BME280;68523;51.336;-0.846;2023-06-04T09:36:00;101300.0;;;19.18;42.75
79118;BME280;68523;51.336;-0.846;2023-06-04T09:39:01;101310.0;;;19.84;42.16
79118;BME280;68523;51.336;-0.846;2023-06-04T09:42:01;101300.0;;;20.64;42.10
79118;BME280;68523;51.336;-0.846;2023-06-04T09:45:00;101300.0;;;20.16;41.50
79118;BME280;68523;51.336;-0.846;2023-06-04T09:48:01;101300.0;;;19.63;42.87
79118;BME280;68523;51.336;-0.846;2023-06-04T09:51:06;101300.0;;;20.57;41.70
79118;BME280;68523;51.336;-0.846;2023-06-04T09:54:01;101300.0;;;20.36;40.93
79118;BME280;68523;51.336;-0.846;2023-06-04T09:57:00;101300.0;;;20.33;41.29
79118;BME280;68523;51.336;-0.846;2023-06-04T10:00:01;101300.0;;;19.63;41.69
79118;BME280;68523;51.336;-0.846;2023-06-04T10:03:02;101300.0;;;20.38;42.01
79118;BME280;68523;51.336;-0.846;2023-06-04T10:06:03;101310.0;;;20.89;39.14
79118;BME280;68523;51.336;-0.846;2023-06-04T10:09:04;101310.0;;;20.98;40.35
79118;BME280;68523;51.336;-0.846;2023-06-04T10:12:00;101310.0;;;20.73;39.89
79118;BME280;68523;51.336;-0.846;2023-06-04T10:15:02;101310.0;;;20.42;41.75
79118;BME280;68523;51.336;-0.846;2023-06-04T10:18:01;101310.0;;;20.55;40.23
79118;BME280;68523;51.336;-0.846;2023-06-04T10:21:00;101310.0;;;20.24;40.62
79118;BME280;68523;51.336;-0.846;2023-06-04T10:24:00;101310.0;;;20.79;41.50
79118;BME280;68523;51.336;-0.846;2023-06-04T10:27:01;101310.0;;;21.26;40.77
79118;BME280;68523;51.336;-0.846;2023-06-04T10:30:01;101310.0;;;20.58;41.14
79118;BME280;68523;51.336;-0.846;2023-06-04T10:33:00;101310.0;;;20.97;39.98
79118;BME280;68523;51.336;-0.846;2023-06-04T10:36:18;101310.0;;;19.80;41.56
79118;BME280;68523;51.336;-0.846;2023-06-04T10:39:00;101310.0;;;20.58;40.19
79118;BME280;68523;51.336;-0.846;2023-06-04T10:42:01;101310.0;;;20.85;41.31
79118;BME280;68523;51.336;-0.846;2023-06-04T10:45:01;101310.0;;;21.94;40.43
79118;BME280;68523;51.336;-0.846;2023-06-04T10:48:01;101310.0;;;21.60;40.63
79118;BME280;68523;51.336;-0.846;2023-06-04T10:51:00;101310.0;;;20.71;40.21
79118;BME280;68523;51.336;-0.846;2023-06-04T10:54:01;101300.0;;;20.83;40.58
79118;BME280;68523;51.336;-0.846;2023-06-04T10:57:10;101300.0;;;21.55;40.92
79118;BME280;68523;51.336;-0.846;2023-06-04T11:00:00;101300.0;;;22.94;39.71
79118;BME280;68523;51.336;-0.846;2023-06-04T11:03:01;101310.0;;;22.93;36.83
79118;BME280;68523;51.336;-0.846;2023-06-04T11:06:00;101310.0;;;22.43;38.06
79118;BME280;68523;51.336;-0.846;2023-06-04T11:09:03;101310.0;;;21.93;40.36
79118;BME280;68523;51.336;-0.846;2023-06-04T11:12:01;101310.0;;;21.92;40.89
79118;BME280;68523;51.336;-0.846;2023-06-04T11:15:00;101310.0;;;21.48;40.36
79118;BME280;68523;51.336;-0.846;2023-06-04T11:18:00;101310.0;;;21.89;39.14
79118;BME280;68523;51.336;-0.846;2023-06-04T11:21:00;101310.0;;;21.98;38.47
79118;BME280;68523;51.336;-0.846;2023-06-04T11:24:00;101310.0;;;22.57;38.38
79118;BME280;68523;51.336;-0.846;2023-06-04T11:27:00;101310.0;;;22.92;38.74
79118;BME280;68523;51.336;-0.846;2023-06-04T11:30:00;101310.0;;;22.69;39.37
79118;BME280;68523;51.336;-0.846;2023-06-04T11:33:01;101310.0;;;22.07;38.38
79118;BME280;68523;51.336;-0.846;2023-06-04T11:36:00;101310.0;;;22.18;38.64
79118;BME280;68523;51.336;-0.846;2023-06-04T11:39:02;101310.0;;;22.44;39.75
79118;BME280;68523;51.336;-0.846;2023-06-04T11:42:04;101310.0;;;22.60;39.69
79118;BME280;68523;51.336;-0.846;2023-06-04T11:45:00;101310.0;;;22.84;37.24
79118;BME280;68523;51.336;-0.846;2023-06-04T11:48:00;101300.0;;;23.02;36.50
79118;BME280;68523;51.336;-0.846;2023-06-04T11:51:06;101300.0;;;22.95;39.37
79118;BME280;68523;51.336;-0.846;2023-06-04T11:54:01;101290.0;;;22.91;38.84
79118;BME280;68523;51.336;-0.846;2023-06-04T11:57:00;101290.0;;;22.41;37.76
79118;BME280;68523;51.336;-0.846;2023-06-04T12:00:00;101290.0;;;21.86;38.10
79118;BME280;68523;51.336;-0.846;2023-06-04T12:03:00;101280.0;;;22.38;38.82
79118;BME280;68523;51.336;-0.846;2023-06-04T12:06:09;101280.0;;;22.85;38.36
79118;BME280;68523;51.336;-0.846;2023-06-04T12:09:00;101280.0;;;23.54;38.64
79118;BME280;68523;51.336;-0.846;2023-06-04T12:12:01;101270.0;;;22.95;36.62
79118;BME280;68523;51.336;-0.846;2023-06-04T12:15:00;101280.0;;;23.49;36.98
79118;BME280;68523;51.336;-0.846;2023-06-04T12:18:00;101280.0;;;23.02;37.45
79118;BME280;68523;51.336;-0.846;2023-06-04T12:21:00;101280.0;;;23.65;37.93
79118;BME280;68523;51.336;-0.846;2023-06-04T12:24:09;101280.0;;;23.20;37.45
79118;BME280;68523;51.336;-0.846;2023-06-04T12:27:02;101270.0;;;22.10;37.93
79118;BME280;68523;51.336;-0.846;2023-06-04T12:30:01;101270.0;;;22.23;37.97
79118;BME280;68523;51.336;-0.846;2023-06-04T12:33:00;101270.0;;;22.25;38.63
79118;BME280;68523;51.336;-0.846;2023-06-04T12:36:00;101270.0;;;22.52;38.60
79118;BME280;68523;51.336;-0.846;2023-06-04T12:39:02;101270.0;;;22.59;39.08
79118;BME280;68523;51.336;-0.846;2023-06-04T12:42:00;101260.0;;;23.29;37.16
79118;BME280;68523;51.336;-0.846;2023-06-04T12:45:00;101260.0;;;23.07;39.20
79118;BME280;68523;51.336;-0.846;2023-06-04T12:48:00;101260.0;;;24.40;37.51
79118;BME280;68523;51.336;-0.846;2023-06-04T12:51:00;101270.0;;;23.64;37.96
79118;BME280;68523;51.336;-0.846;2023-06-04T12:54:00;101260.0;;;23.74;37.80
79118;BME280;68523;51.336;-0.846;2023-06-04T12:57:00;101260.0;;;23.77;36.16
79118;BME280;68523;51.336;-0.846;2023-06-04T13:00:01;101270.0;;;23.04;37.60
79118;BME280;68523;51.336;-0.846;2023-06-04T13:03:00;101270.0;;;23.17;37.56
79118;BME280;68523;51.336;-0.846;2023-06-04T13:06:00;101260.0;;;23.18;36.81
79118;BME280;68523;51.336;-0.846;2023-06-04T13:09:00;101260.0;;;24.11;35.52
79118;BME280;68523;51.336;-0.846;2023-06-04T13:12:00;101270.0;;;23.46;37.09
79118;BME280;68523;51.336;-0.846;2023-06-04T13:15:00;101270.0;;;23.93;33.88
79118;BME280;68523;51.336;-0.846;2023-06-04T13:18:00;101260.0;;;23.61;35.12
79118;BME280;68523;51.336;-0.846;2023-06-04T13:21:00;101260.0;;;24.16;37.27
79118;BME280;68523;51.336;-0.846;2023-06-04T13:24:00;101260.0;;;23.67;36.72
79118;BME280;68523;51.336;-0.846;2023-06-04T13:27:02;101260.0;;;23.46;37.89
79118;BME280;68523;51.336;-0.846;2023-06-04T13:30:00;101250.0;;;24.02;36.19
79118;BME280;68523;51.336;-0.846;2023-06-04T13:33:00;101240.0;;;23.72;35.59
79118;BME280;68523;51.336;-0.846;2023-06-04T13:36:00;101240.0;;;24.72;34.85
79118;BME280;68523;51.336;-0.846;2023-06-04T13:39:00;101240.0;;;24.73;35.18
79118;BME280;68523;51.336;-0.846;2023-06-04T13:42:00;101240.0;;;24.57;35.39
79118;BME280;68523;51.336;-0.846;2023-06-04T13:45:01;101240.0;;;24.23;35.00
79118;BME280;68523;51.336;-0.846;2023-06-04T13:48:00;101240.0;;;25.41;32.74
79118;BME280;68523;51.336;-0.846;2023-06-04T13:51:00;101240.0;;;25.68;31.85
79118;BME280;68523;51.336;-0.846;2023-06-04T13:54:00;101250.0;;;24.97;33.74
79118;BME280;68523;51.336;-0.846;2023-06-04T13:57:01;101250.0;;;24.75;34.38
79118;BME280;68523;51.336;-0.846;2023-06-04T14:00:00;101240.0;;;24.92;32.10
79118;BME280;68523;51.336;-0.846;2023-06-04T14:03:00;101250.0;;;24.48;33.14
79118;BME280;68523;51.336;-0.846;2023-06-04T14:06:00;101250.0;;;23.62;34.16
79118;BME280;68523;51.336;-0.846;2023-06-04T14:09:00;101240.0;;;23.57;35.10
79118;BME280;68523;51.336;-0.846;2023-06-04T14:12:01;101240.0;;;23.15;35.91
79118;BME280;68523;51.336;-0.846;2023-06-04T14:15:00;101240.0;;;23.60;34.28
79118;BME280;68523;51.336;-0.846;2023-06-04T14:18:00;101230.0;;;24.68;34.41
79118;BME280;68523;51.336;-0.846;2023-06-04T14:21:00;101230.0;;;23.39;35.17
79118;BME280;68523;51.336;-0.846;2023-06-04T14:24:00;101230.0;;;23.96;34.42
79118;BME280;68523;51.336;-0.846;2023-06-04T14:27:00;101230.0;;;24.43;33.60
79118;BME280;68523;51.336;-0.846;2023-06-04T14:30:00;101220.0;;;24.15;33.93
79118;BME280;68523;51.336;-0.846;2023-06-04T14:33:00;101220.0;;;24.75;34.46
79118;BME280;68523;51.336;-0.846;2023-06-04T14:36:00;101220.0;;;24.17;34.47
79118;BME280;68523;51.336;-0.846;2023-06-04T14:39:00;101220.0;;;25.26;33.67
79118;BME280;68523;51.336;-0.846;2023-06-04T14:42:00;101220.0;;;25.33;33.02
79118;BME280;68523;51.336;-0.846;2023-06-04T14:45:00;101220.0;;;25.31;32.35
79118;BME280;68523;51.336;-0.846;2023-06-04T14:48:00;101220.0;;;24.05;33.79
79118;BME280;68523;51.336;-0.846;2023-06-04T14:51:00;101210.0;;;25.17;34.40
79118;BME280;68523;51.336;-0.846;2023-06-04T14:54:00;101210.0;;;24.35;34.96
79118;BME280;68523;51.336;-0.846;2023-06-04T14:57:00;101210.0;;;23.78;34.26
79118;BME280;68523;51.336;-0.846;2023-06-04T15:00:00;101210.0;;;23.97;34.18
79118;BME280;68523;51.336;-0.846;2023-06-04T15:03:00;101210.0;;;24.79;34.31
79118;BME280;68523;51.336;-0.846;2023-06-04T15:06:00;101210.0;;;26.08;32.11
79118;BME280;68523;51.336;-0.846;2023-06-04T15:09:00;101210.0;;;24.90;33.37
79118;BME280;68523;51.336;-0.846;2023-06-04T15:12:00;101210.0;;;25.64;32.86
79118;BME280;68523;51.336;-0.846;2023-06-04T15:15:00;101210.0;;;25.47;33.60
79118;BME280;68523;51.336;-0.846;2023-06-04T15:18:00;101210.0;;;24.68;34.99
79118;BME280;68523;51.336;-0.846;2023-06-04T15:21:00;101210.0;;;24.19;33.84
79118;BME280;68523;51.336;-0.846;2023-06-04T15:24:00;101210.0;;;24.50;34.40
79118;BME280;68523;51.336;-0.846;2023-06-04T15:27:00;101200.0;;;24.66;34.20
79118;BME280;68523;51.336;-0.846;2023-06-04T15:30:00;101200.0;;;23.58;34.90
79118;BME280;68523;51.336;-0.846;2023-06-04T15:33:00;101200.0;;;23.64;36.03
79118;BME280;68523;51.336;-0.846;2023-06-04T15:36:00;101200.0;;;23.65;35.50
79118;BME280;68523;51.336;-0.846;2023-06-04T15:39:00;101200.0;;;23.64;35.62
79118;BME280;68523;51.336;-0.846;2023-06-04T15:42:00;101190.0;;;24.24;34.47